Time;durP1;ratioP1;P1;durP2;ratioP2;P2;SDS_P1;SDS_P2;PMS_P1;PMS_P2;Temp;Humidity;BMP_temperature;BMP_pressure;BME280_temperature;BME280_humidity;BME280_pressure;Samples;Min_cycle;Max_cycle;Signal;HPM_P1;HPM_P2
2022/09/04 00:08:43;;;;;;;4.03;1.90;;;24.40;32.30;;;;;;20743050;28;20054;-58
2022/09/04 00:19:01;;;;;;;3.55;1.80;;;24.30;32.20;;;;;;20857101;28;20049;-59
2022/09/04 00:29:20;;;;;;;6.47;3.70;;;24.00;31.10;;;;;;20997566;28;20059;-58
2022/09/04 00:39:30;;;;;;;2.50;1.52;;;24.10;29.80;;;;;;20979007;28;20064;-58
2022/09/04 00:50:02;;;;;;;3.55;1.60;;;24.10;29.40;;;;;;20996688;28;20492;-58
2022/09/04 01:00:15;;;;;;;2.42;1.30;;;23.90;28.80;;;;;;20995762;28;20049;-58
2022/09/04 01:10:48;;;;;;;3.58;1.45;;;23.70;28.50;;;;;;20996216;28;20063;-58
2022/09/04 01:21:06;;;;;;;2.13;1.40;;;23.60;30.00;;;;;;20994869;28;20053;-59
2022/09/04 01:31:48;;;;;;;3.40;1.40;;;23.50;30.90;;;;;;20995041;28;20086;-58
2022/09/04 01:41:57;;;;;;;3.65;1.60;;;23.60;31.10;;;;;;20993652;28;20057;-57
2022/09/04 01:52:32;;;;;;;4.22;1.52;;;23.50;31.50;;;;;;20993811;28;20500;-59
2022/09/04 02:02:55;;;;;;;3.20;1.58;;;23.60;31.80;;;;;;20992998;28;20056;-58
2022/09/04 02:13:28;;;;;;;3.78;1.42;;;23.40;31.60;;;;;;20993918;28;20132;-59
2022/09/04 02:23:52;;;;;;;2.70;1.48;;;23.10;31.50;;;;;;20989202;28;20437;-58
2022/09/04 02:34:11;;;;;;;10.07;2.17;;;23.10;31.80;;;;;;21007621;28;20533;-58
2022/09/04 02:44:35;;;;;;;5.20;2.03;;;23.00;32.50;;;;;;21005308;28;20091;-57
2022/09/04 02:55:14;;;;;;;5.15;2.08;;;22.70;33.20;;;;;;21005248;28;20059;-58
2022/09/04 03:05:25;;;;;;;3.28;1.90;;;22.60;33.50;;;;;;21004039;28;20470;-58
2022/09/04 03:15:35;;;;;;;4.57;1.83;;;22.40;33.90;;;;;;21003799;28;20044;-58
2022/09/04 03:25:54;;;;;;;3.75;1.80;;;22.20;34.20;;;;;;21002004;28;20128;-58
2022/09/04 03:36:15;;;;;;;5.32;2.05;;;22.10;34.10;;;;;;21001207;28;20056;-58
2022/09/04 03:46:18;;;;;;;3.47;1.95;;;22.00;34.30;;;;;;21001203;28;20052;-59
2022/09/04 03:56:46;;;;;;;5.60;1.80;;;22.10;34.20;;;;;;21000528;28;20053;-60
2022/09/04 04:06:56;;;;;;;4.63;1.98;;;22.00;35.00;;;;;;20999333;28;20070;-58
2022/09/04 04:17:10;;;;;;;3.05;1.70;;;21.70;35.90;;;;;;20998989;28;20447;-57
2022/09/04 04:27:20;;;;;;;4.00;1.90;;;21.70;35.80;;;;;;20997333;28;20041;-58
2022/09/04 04:38:04;;;;;;;5.90;1.80;;;21.70;36.30;;;;;;20996342;28;20048;-59
2022/09/04 04:48:24;;;;;;;5.75;2.40;;;21.70;36.40;;;;;;20741510;28;20053;-59
2022/09/04 04:58:29;;;;;;;4.50;1.70;;;21.60;36.70;;;;;;20740670;28;20054;-58
2022/09/04 05:08:35;;;;;;;6.28;2.85;;;21.40;37.10;;;;;;20739786;28;20136;-58
2022/09/04 05:18:51;;;;;;;6.28;2.17;;;21.40;37.20;;;;;;20808100;28;20140;-58
2022/09/04 05:28:55;;;;;;;5.45;2.78;;;21.30;37.40;;;;;;20994584;28;20156;-58
2022/09/04 05:39:17;;;;;;;7.03;2.80;;;21.20;37.70;;;;;;20994751;28;20485;-58
2022/09/04 05:49:19;;;;;;;4.55;2.13;;;21.20;38.10;;;;;;20999245;28;20106;-57
2022/09/04 05:59:43;;;;;;;6.83;2.63;;;21.00;38.50;;;;;;21008925;28;20048;-58
2022/09/04 06:09:49;;;;;;;4.93;2.47;;;20.90;38.70;;;;;;20990510;28;20504;-57
2022/09/04 06:19:53;;;;;;;5.50;2.53;;;20.80;39.00;;;;;;21007439;28;20052;-59
2022/09/04 06:30:10;;;;;;;7.70;2.95;;;20.70;39.10;;;;;;21007455;28;20412;-57
2022/09/04 06:40:49;;;;;;;5.88;2.40;;;20.70;39.20;;;;;;21005988;28;20068;-58
2022/09/04 06:51:07;;;;;;;9.68;3.05;;;20.70;39.50;;;;;;21005218;28;20067;-59
2022/09/04 07:01:18;;;;;;;8.88;3.10;;;20.70;39.20;;;;;;21004565;28;20045;-58
2022/09/04 07:11:35;;;;;;;6.65;2.28;;;20.70;39.40;;;;;;21004359;28;20051;-58
2022/09/04 07:22:05;;;;;;;4.68;2.35;;;20.80;39.40;;;;;;21003260;28;20504;-59
2022/09/04 07:32:38;;;;;;;6.97;3.20;;;21.10;39.30;;;;;;21001622;28;20123;-59
2022/09/04 07:42:58;;;;;;;6.63;2.60;;;21.30;38.60;;;;;;21001003;28;20061;-59
2022/09/04 07:53:15;;;;;;;6.53;2.67;;;21.70;37.90;;;;;;21000634;28;20045;-58
2022/09/04 08:03:44;;;;;;;8.32;3.83;;;22.00;37.60;;;;;;20999626;28;20449;-57
2022/09/04 08:13:59;;;;;;;7.85;2.88;;;22.30;36.80;;;;;;20998489;28;20048;-58
2022/09/04 08:24:40;;;;;;;6.78;3.33;;;22.60;37.20;;;;;;20998169;28;20055;-58
2022/09/04 08:34:42;;;;;;;10.65;2.85;;;22.90;36.90;;;;;;20997127;28;20059;-57
2022/09/04 08:45:09;;;;;;;5.10;2.37;;;23.10;36.00;;;;;;20997498;28;20059;-60
2022/09/04 08:55:54;;;;;;;4.88;2.95;;;23.60;34.40;;;;;;20996533;28;20049;-60
2022/09/04 09:06:26;;;;;;;7.55;2.47;;;24.00;33.20;;;;;;20995366;28;20138;-60
2022/09/04 09:17:05;;;;;;;8.20;2.45;;;24.30;33.20;;;;;;20994534;28;20045;-58
2022/09/04 09:27:13;;;;;;;6.60;4.53;;;24.70;31.50;;;;;;21003998;28;20117;-58
2022/09/04 09:37:43;;;;;;;6.90;2.15;;;24.90;31.90;;;;;;21009674;28;20088;-59
2022/09/04 09:48:22;;;;;;;5.85;2.47;;;25.00;32.00;;;;;;21007476;28;20049;-59
2022/09/04 09:58:39;;;;;;;2.95;1.77;;;25.20;30.50;;;;;;21007644;28;20056;-59
2022/09/04 10:08:59;;;;;;;3.85;2.03;;;25.50;30.10;;;;;;21008525;28;20076;-58
2022/09/04 10:19:29;;;;;;;3.95;1.75;;;25.70;29.20;;;;;;21007288;28;20067;-58
2022/09/04 10:29:41;;;;;;;6.40;2.20;;;26.00;29.70;;;;;;21005813;28;20056;-58
2022/09/04 10:50:34;;;;;;;3.20;1.42;;;26.30;29.70;;;;;;21006058;28;20393;-57
2022/09/04 11:00:54;;;;;;;3.85;1.65;;;26.40;28.80;;;;;;21004449;28;20098;-58
2022/09/04 11:11:19;;;;;;;5.40;1.60;;;26.70;28.40;;;;;;21004768;28;20163;-59
2022/09/04 11:22:07;;;;;;;4.88;1.58;;;27.00;27.40;;;;;;20746824;28;20073;-58
2022/09/04 11:32:33;;;;;;;5.38;2.88;;;27.20;26.20;;;;;;20745853;28;20046;-58
2022/09/04 11:42:49;;;;;;;5.30;2.00;;;27.30;26.30;;;;;;20744300;28;20053;-58
2022/09/04 11:53:24;;;;;;;3.97;2.05;;;27.50;25.80;;;;;;20829195;28;20477;-61
2022/09/04 12:03:52;;;;;;;6.28;3.15;;;27.80;26.30;;;;;;20997944;28;20400;-58
2022/09/04 12:14:13;;;;;;;6.45;4.28;;;27.90;24.50;;;;;;20998220;28;20429;-59
2022/09/04 12:24:51;;;;;;;3.28;1.60;;;28.00;25.20;;;;;;20997894;28;20048;-59
2022/09/04 12:35:19;;;;;;;4.32;1.70;;;28.10;24.40;;;;;;20997719;28;20105;-59
2022/09/04 12:45:29;;;;;;;3.13;1.20;;;28.10;24.50;;;;;;20740888;28;20518;-58
2022/09/04 12:55:47;;;;;;;4.72;2.17;;;28.30;24.00;;;;;;20739570;28;20050;-60
2022/09/04 13:06:02;;;;;;;4.88;3.53;;;28.50;24.40;;;;;;20723179;28;20058;-58
2022/09/04 13:16:42;;;;;;;4.00;1.60;;;28.60;24.10;;;;;;20802277;28;20109;-59
2022/09/04 13:27:06;;;;;;;2.85;1.80;;;28.70;23.60;;;;;;20994873;28;20051;-59
2022/09/04 13:37:28;;;;;;;5.70;1.85;;;28.80;23.90;;;;;;20995177;28;20048;-59
2022/09/04 13:48:02;;;;;;;4.28;1.70;;;28.70;23.70;;;;;;20994640;28;20052;-59
2022/09/04 13:58:27;;;;;;;5.72;2.42;;;29.00;23.70;;;;;;20991147;28;20053;-60
2022/09/04 14:08:33;;;;;;;3.30;1.85;;;29.00;24.00;;;;;;20977727;28;20044;-60
2022/09/04 14:19:14;;;;;;;4.50;2.28;;;29.00;24.20;;;;;;21007379;28;20451;-56
2022/09/04 14:29:48;;;;;;;3.97;1.40;;;29.20;23.70;;;;;;21006089;28;20549;-58
2022/09/04 14:40:11;;;;;;;3.95;1.95;;;29.20;23.20;;;;;;20710315;28;20121;-59
2022/09/04 14:50:15;;;;;;;7.63;4.35;;;29.30;23.80;;;;;;20668729;28;20054;-58
2022/09/04 15:00:19;;;;;;;5.53;2.95;;;29.40;23.60;;;;;;20667612;28;20073;-58
2022/09/04 15:10:46;;;;;;;3.13;1.10;;;29.30;23.70;;;;;;20710733;28;20099;-58
2022/09/04 15:21:03;;;;;;;4.82;2.10;;;29.30;23.30;;;;;;20837762;28;20497;-58
2022/09/04 15:31:36;;;;;;;8.15;3.40;;;29.30;23.10;;;;;;20838233;28;20464;-60
2022/09/04 15:41:43;;;;;;;1.73;1.02;;;29.40;23.50;;;;;;20947727;28;20052;-58
2022/09/04 15:51:45;;;;;;;10.55;6.47;;;29.30;22.90;;;;;;21000748;28;20071;-59
2022/09/04 16:02:11;;;;;;;5.10;1.60;;;29.20;23.10;;;;;;21002162;28;20052;-60
2022/09/04 16:12:19;;;;;;;2.15;1.48;;;29.20;23.00;;;;;;21000288;28;20106;-60
2022/09/04 16:22:25;;;;;;;3.15;1.70;;;29.20;23.50;;;;;;20998899;28;20128;-59
2022/09/04 16:32:28;;;;;;;2.28;1.10;;;29.20;22.90;;;;;;20996646;28;20071;-59
2022/09/04 16:42:53;;;;;;;4.53;1.40;;;29.10;23.50;;;;;;20996580;28;20139;-59
2022/09/04 16:53:08;;;;;;;3.10;2.00;;;29.20;23.30;;;;;;20996875;28;20052;-60
2022/09/04 17:03:23;;;;;;;5.43;2.25;;;29.00;22.20;;;;;;20995562;28;20447;-58
2022/09/04 17:13:27;;;;;;;8.00;2.50;;;28.90;22.90;;;;;;20995328;28;20495;-58
2022/09/04 17:23:38;;;;;;;3.72;1.27;;;28.80;22.80;;;;;;20995002;28;20049;-58
2022/09/04 17:33:41;;;;;;;2.92;1.52;;;28.60;23.30;;;;;;20995102;28;20037;-61
2022/09/04 17:44:08;;;;;;;2.92;1.77;;;28.50;23.10;;;;;;20997020;28;20060;-60
2022/09/04 17:54:12;;;;;;;8.45;2.80;;;28.30;23.80;;;;;;21010109;28;20106;-59
2022/09/04 18:04:34;;;;;;;5.47;3.05;;;28.10;24.00;;;;;;21009012;28;20044;-60
2022/09/04 18:15:04;;;;;;;4.82;1.58;;;27.90;24.00;;;;;;21008205;28;20045;-58
2022/09/04 18:25:15;;;;;;;4.87;1.70;;;27.60;23.80;;;;;;21007136;28;20048;-58
2022/09/04 18:35:37;;;;;;;7.93;2.87;;;27.50;24.50;;;;;;21006737;28;20068;-59
2022/09/04 18:45:44;;;;;;;7.53;1.90;;;27.30;25.00;;;;;;21005481;28;20048;-60
2022/09/04 18:56:11;;;;;;;3.58;2.17;;;27.20;25.50;;;;;;21004117;28;20045;-60
2022/09/04 19:06:36;;;;;;;12.10;6.50;;;27.10;25.70;;;;;;20748287;28;20425;-60
2022/09/04 19:16:52;;;;;;;6.47;2.35;;;26.80;26.60;;;;;;20349169;28;20565;-60
2022/09/04 19:26:53;;;;;;;8.18;4.30;;;26.70;27.20;;;;;;20347275;28;20067;-59
2022/09/04 19:36:59;;;;;;;8.23;3.10;;;26.60;27.50;;;;;;20405438;28;20442;-61
2022/09/04 19:47:01;;;;;;;5.63;2.90;;;26.40;28.00;;;;;;20676578;28;20056;-62
2022/09/04 19:57:15;;;;;;;5.43;2.90;;;26.40;28.00;;;;;;21000458;28;20048;-59
2022/09/04 20:07:47;;;;;;;6.00;2.30;;;26.30;28.10;;;;;;20999102;28;20052;-61
2022/09/04 20:18:19;;;;;;;3.47;1.90;;;26.10;28.30;;;;;;20997848;28;20060;-60
2022/09/04 20:28:48;;;;;;;6.53;3.55;;;26.00;28.40;;;;;;20997156;28;20460;-61
2022/09/04 20:38:56;;;;;;;5.68;2.92;;;26.10;28.60;;;;;;20996407;28;20135;-60
2022/09/04 20:49:06;;;;;;;4.32;3.03;;;25.90;28.70;;;;;;20997156;28;20098;-60
2022/09/04 20:59:17;;;;;;;4.57;2.28;;;25.70;28.30;;;;;;20996450;28;20048;-61
2022/09/04 21:09:25;;;;;;;4.18;1.80;;;25.70;27.50;;;;;;20995929;28;20098;-59
2022/09/04 21:19:32;;;;;;;3.60;1.92;;;25.50;27.20;;;;;;21000556;28;20405;-60
2022/09/04 21:29:58;;;;;;;5.30;2.88;;;25.40;27.30;;;;;;21012112;28;20094;-61
2022/09/04 21:40:09;;;;;;;5.15;3.25;;;25.20;28.10;;;;;;21011919;28;20048;-60
2022/09/04 21:50:23;;;;;;;4.60;2.00;;;25.10;28.60;;;;;;21010418;28;20090;-59
2022/09/04 22:00:25;;;;;;;5.05;2.65;;;24.90;28.80;;;;;;21010379;28;20052;-60
2022/09/04 22:10:42;;;;;;;7.50;3.53;;;24.80;28.70;;;;;;21009219;28;20048;-59
2022/09/04 22:20:45;;;;;;;6.78;3.65;;;24.80;29.00;;;;;;21008626;28;20049;-59
2022/09/04 22:30:59;;;;;;;6.38;4.00;;;24.60;29.70;;;;;;21007875;28;20122;-60
2022/09/04 22:41:22;;;;;;;8.05;2.33;;;24.70;29.10;;;;;;21007683;28;20052;-60
2022/09/04 22:52:07;;;;;;;4.50;2.55;;;24.70;29.10;;;;;;21007409;28;20048;-59
2022/09/04 23:02:35;;;;;;;5.25;2.30;;;24.70;29.00;;;;;;20748658;28;20050;-59
2022/09/04 23:12:58;;;;;;;4.72;2.60;;;24.60;29.20;;;;;;20747691;28;20046;-61
2022/09/04 23:23:00;;;;;;;6.60;2.40;;;24.50;29.30;;;;;;20746876;28;20050;-62
2022/09/04 23:33:02;;;;;;;5.90;2.25;;;24.30;29.50;;;;;;20825120;28;20052;-59
2022/09/04 23:43:25;;;;;;;6.63;2.60;;;24.10;29.80;;;;;;21000425;28;20053;-58
2022/09/04 23:53:31;;;;;;;5.55;2.92;;;23.90;29.70;;;;;;21000211;28;20052;-61
